Map

Track Data

SID SEASON NUMBER BASIN SUBBASIN NAME ISO_TIME NATURE LAT LON WMO_WIND WMO_PRES WMO_AGENCY TRACK_TYPE DIST2LAND LANDFALL IFLAG USA_AGENCY USA_ATCF_ID USA_LAT USA_LON USA_RECORD USA_STATUS USA_WIND USA_PRES USA_SSHS USA_R34_NE USA_R34_SE USA_R34_SW USA_R34_NW USA_R50_NE USA_R50_SE USA_R50_SW USA_R50_NW USA_R64_NE USA_R64_SE USA_R64_SW USA_R64_NW USA_POCI USA_ROCI USA_RMW USA_EYE TOKYO_LAT TOKYO_LON TOKYO_GRADE TOKYO_WIND TOKYO_PRES TOKYO_R50_DIR TOKYO_R50_LONG TOKYO_R50_SHORT TOKYO_R30_DIR TOKYO_R30_LONG TOKYO_R30_SHORT TOKYO_LAND CMA_LAT CMA_LON CMA_CAT CMA_WIND CMA_PRES HKO_LAT HKO_LON HKO_CAT HKO_WIND HKO_PRES NEWDELHI_LAT NEWDELHI_LON NEWDELHI_GRADE NEWDELHI_WIND NEWDELHI_PRES NEWDELHI_CI NEWDELHI_DP NEWDELHI_POCI REUNION_LAT REUNION_LON REUNION_TYPE REUNION_WIND REUNION_PRES REUNION_TNUM REUNION_CI REUNION_RMW REUNION_R34_NE REUNION_R34_SE REUNION_R34_SW REUNION_R34_NW REUNION_R50_NE REUNION_R50_SE REUNION_R50_SW REUNION_R50_NW REUNION_R64_NE REUNION_R64_SE REUNION_R64_SW REUNION_R64_NW BOM_LAT BOM_LON BOM_TYPE BOM_WIND BOM_PRES BOM_TNUM BOM_CI BOM_RMW BOM_R34_NE BOM_R34_SE BOM_R34_SW BOM_R34_NW BOM_R50_NE BOM_R50_SE BOM_R50_SW BOM_R50_NW BOM_R64_NE BOM_R64_SE BOM_R64_SW BOM_R64_NW BOM_ROCI BOM_POCI BOM_EYE BOM_POS_METHOD BOM_PRES_METHOD NADI_LAT NADI_LON NADI_CAT NADI_WIND NADI_PRES WELLINGTON_LAT WELLINGTON_LON WELLINGTON_WIND WELLINGTON_PRES DS824_LAT DS824_LON DS824_STAGE DS824_WIND DS824_PRES TD9636_LAT TD9636_LON TD9636_STAGE TD9636_WIND TD9636_PRES TD9635_LAT TD9635_LON TD9635_WIND TD9635_PRES TD9635_ROCI NEUMANN_LAT NEUMANN_LON NEUMANN_CLASS NEUMANN_WIND NEUMANN_PRES MLC_LAT MLC_LON MLC_CLASS MLC_WIND MLC_PRES USA_GUST BOM_GUST BOM_GUST_PER REUNION_GUST REUNION_GUST_PER USA_SEAHGT USA_SEARAD_NE USA_SEARAD_SE USA_SEARAD_SW USA_SEARAD_NW STORM_SPEED STORM_DIR
1939184N11137 1939 29 WP MM NOT_NAMED 1939-07-02 21:00:00 NR 11.4000 136.500 main 1154 1154 __________O___ -1 11.4000 136.500 2 19 52
1939184N11137 1939 29 WP MM NOT_NAMED 1939-07-03 00:00:00 NR 11.9849 137.259 main 1253 1253 __________P___ -1 11.9849 137.259 2 19 51
1939184N11137 1939 29 WP MM NOT_NAMED 1939-07-03 03:00:00 NR 12.5849 137.996 main 1340 1340 __________P___ -1 12.5849 137.996 2 19 48
1939184N11137 1939 29 WP MM NOT_NAMED 1939-07-03 06:00:00 NR 13.2174 138.685 main 1424 1424 __________P___ -1 13.2174 138.685 2 18 44
1939184N11137 1939 29 WP MM NOT_NAMED 1939-07-03 09:00:00 NR 13.9000 139.300 main 1501 1501 __________O___ -1 13.9000 139.300 2 18 38
1939184N11137 1939 29 WP MM NOT_NAMED 1939-07-03 12:00:00 NR 14.6400 139.821 main 1570 1570 __________P___ -1 14.6400 139.821 2 18 31
1939184N11137 1939 29 WP MM NOT_NAMED 1939-07-03 15:00:00 NR 15.4015 140.245 main 1627 1627 __________P___ -1 15.4015 140.245 2 17 26
1939184N11137 1939 29 WP MM NOT_NAMED 1939-07-03 18:00:00 NR 16.1373 140.571 main 1685 1685 __________P___ -1 16.1373 140.571 2 15 21
1939184N11137 1939 29 WP MM NOT_NAMED 1939-07-03 21:00:00 NR 16.8000 140.800 main 1725 1725 __________O___ -1 16.8000 140.800 2 13 17
1939184N11137 1939 29 WP MM NOT_NAMED 1939-07-04 00:00:00 NR 17.3326 140.953 main 1761 1761 __________P___ -1 17.3326 140.953 2 10 12
1939184N11137 1939 29 WP MM NOT_NAMED 1939-07-04 03:00:00 NR 17.7893 141.014 main 1778 1762 __________P___ -1 17.7893 141.014 2 9 3
1939184N11137 1939 29 WP MM NOT_NAMED 1939-07-04 06:00:00 NR 18.2015 141.018 main 1762 1724 __________P___ -1 18.2015 141.018 2 8 359
1939184N11137 1939 29 WP MM NOT_NAMED 1939-07-04 09:00:00 NR 18.6000 141.000 main 1724 1686 __________O___ -1 18.6000 141.000 2 9 0
1939184N11137 1939 29 WP MM NOT_NAMED 1939-07-04 12:00:00 NR 19.0687 141.023 main 1677 1635 __________P___ -1 19.0687 141.023 2 9 3
1939184N11137 1939 29 WP MM NOT_NAMED 1939-07-04 15:00:00 NR 19.5249 141.030 main 1635 1592 __________P___ -1 19.5249 141.030 2 9 0
1939184N11137 1939 29 WP MM NOT_NAMED 1939-07-04 18:00:00 NR 19.9437 141.023 main 1592 1550 __________P___ -1 19.9437 141.023 2 8 357
1939184N11137 1939 29 WP MM NOT_NAMED 1939-07-04 21:00:00 NR 20.3000 141.000 main 1550 1529 __________O___ -1 20.3000 141.000 2 6 0
1939184N11137 1939 29 WP MM NOT_NAMED 1939-07-05 00:00:00 NR 20.5359 141.020 main 1529 1508 __________P___ -1 20.5359 141.020 2 4 3
1939184N11137 1939 29 WP MM NOT_NAMED 1939-07-05 03:00:00 NR 20.7143 141.019 main 1508 1486 __________P___ -1 20.7143 141.019 2 4 351
1939184N11137 1939 29 WP MM NOT_NAMED 1939-07-05 06:00:00 NR 20.8857 140.957 main 1486 1458 __________P___ -1 20.8857 140.957 2 4 332
1939184N11137 1939 29 WP MM NOT_NAMED 1939-07-05 09:00:00 NR 21.1000 140.800 main 1458 1417 __________O___ -1 21.1000 140.800 2 7 323
1939184N11137 1939 29 WP MM NOT_NAMED 1939-07-05 12:00:00 NR 21.4453 140.510 main 1417 1362 __________P___ -1 21.4453 140.510 2 10 319
1939184N11137 1939 29 WP MM NOT_NAMED 1939-07-05 15:00:00 NR 21.8355 140.121 main 1362 1307 __________P___ -1 21.8355 140.121 2 11 315
1939184N11137 1939 29 WP MM NOT_NAMED 1939-07-05 18:00:00 NR 22.2328 139.672 main 1307 1248 __________P___ -1 22.2328 139.672 2 11 312
1939184N11137 1939 29 WP MM NOT_NAMED 1939-07-05 21:00:00 NR 22.6000 139.200 main 1248 1197 __________O___ -1 22.6000 139.200 2 11 309
1939184N11137 1939 29 WP MM NOT_NAMED 1939-07-06 00:00:00 NR 22.8893 138.788 main 1197 1155 __________P___ -1 22.8893 138.788 2 9 305
1939184N11137 1939 29 WP MM NOT_NAMED 1939-07-06 03:00:00 NR 23.1439 138.358 main 1155 1098 __________P___ -1 23.1439 138.358 2 10 301
1939184N11137 1939 29 WP MM NOT_NAMED 1939-07-06 06:00:00 NR 23.3766 137.900 main 1098 1052 __________P___ -1 23.3766 137.900 2 10 297
1939184N11137 1939 29 WP MM NOT_NAMED 1939-07-06 09:00:00 NR 23.6000 137.400 main 1052 1000 __________O___ -1 23.6000 137.400 2 11 295
1939184N11137 1939 29 WP MM NOT_NAMED 1939-07-06 12:00:00 NR 23.8371 136.811 main 1000 941 __________P___ -1 23.8371 136.811 2 12 293
1939184N11137 1939 29 WP MM NOT_NAMED 1939-07-06 15:00:00 NR 24.0663 136.185 main 941 889 __________P___ -1 24.0663 136.185 2 12 292
1939184N11137 1939 29 WP MM NOT_NAMED 1939-07-06 18:00:00 NR 24.2871 135.567 main 889 839 __________P___ -1 24.2871 135.567 2 12 292
1939184N11137 1939 29 WP MM NOT_NAMED 1939-07-06 21:00:00 NR 24.5000 135.000 main 839 800 __________O___ -1 24.5000 135.000 2 10 293
1939184N11137 1939 29 WP MM NOT_NAMED 1939-07-07 00:00:00 NR 24.6685 134.580 main 800 772 __________P___ -1 24.6685 134.580 2 8 295
1939184N11137 1939 29 WP MM NOT_NAMED 1939-07-07 03:00:00 NR 24.8371 134.211 main 772 739 __________P___ -1 24.8371 134.211 2 8 299
1939184N11137 1939 29 WP MM NOT_NAMED 1939-07-07 06:00:00 NR 25.0372 133.836 main 735 689 __________P___ -1 25.0372 133.836 2 9 302
1939184N11137 1939 29 WP MM NOT_NAMED 1939-07-07 09:00:00 NR 25.3000 133.400 main 689 636 __________O___ -1 25.3000 133.400 2 11 304
1939184N11137 1939 29 WP MM NOT_NAMED 1939-07-07 12:00:00 NR 25.6616 132.795 main 626 566 __________P___ -1 25.6616 132.795 2 14 304
1939184N11137 1939 29 WP MM NOT_NAMED 1939-07-07 15:00:00 NR 26.0845 132.125 main 563 508 __________P___ -1 26.0845 132.125 2 15 306
1939184N11137 1939 29 WP MM NOT_NAMED 1939-07-07 18:00:00 NR 26.5398 131.442 main 506 446 __________P___ -1 26.5398 131.442 2 15 308
1939184N11137 1939 29 WP MM NOT_NAMED 1939-07-07 21:00:00 NR 27.0000 130.800 main 446 403 __________O___ -1 27.0000 130.800 2 14 310
1939184N11137 1939 29 WP MM NOT_NAMED 1939-07-08 00:00:00 NR 27.4154 130.272 main 403 365 __________P___ -1 27.4154 130.272 2 12 313
1939184N11137 1939 29 WP MM NOT_NAMED 1939-07-08 03:00:00 NR 27.8331 129.795 main 367 336 __________P___ -1 27.8331 129.795 2 12 316
1939184N11137 1939 29 WP MM NOT_NAMED 1939-07-08 06:00:00 NR 28.2594 129.344 main 330 305 __________P___ -1 28.2594 129.344 2 12 318
1939184N11137 1939 29 WP MM NOT_NAMED 1939-07-08 09:00:00 NR 28.7000 128.900 main 305 285 __________O___ -1 28.7000 128.900 2 12 319
1939184N11137 1939 29 WP MM NOT_NAMED 1939-07-08 12:00:00 NR 29.1635 128.448 main 282 268 __________P___ -1 29.1635 128.448 2 12 320
1939184N11137 1939 29 WP MM NOT_NAMED 1939-07-08 15:00:00 NR 29.6408 127.992 main 276 268 __________P___ -1 29.6408 127.992 2 13 320
1939184N11137 1939 29 WP MM NOT_NAMED 1939-07-08 18:00:00 NR 30.1227 127.516 main 285 280 __________P___ -1 30.1227 127.516 2 13 318
1939184N11137 1939 29 WP MM NOT_NAMED 1939-07-08 21:00:00 NR 30.6000 127.000 main 292 245 __________O___ -1 30.6000 127.000 2 14 312
1939184N11137 1939 29 WP MM NOT_NAMED 1939-07-09 00:00:00 NR 31.0310 126.330 main 245 206 __________P___ -1 31.0310 126.330 2 15 306
1939184N11137 1939 29 WP MM NOT_NAMED 1939-07-09 03:00:00 NR 31.4583 125.633 main 200 183 __________P___ -1 31.4583 125.633 2 14 307
1939184N11137 1939 29 WP MM NOT_NAMED 1939-07-09 06:00:00 NR 31.9061 124.994 main 189 186 __________P___ -1 31.9061 124.994 2 13 314
1939184N11137 1939 29 WP MM NOT_NAMED 1939-07-09 09:00:00 NR 32.4000 124.500 main 187 179 __________O___ -1 32.4000 124.500 2 13 330
1939184N11137 1939 29 WP MM NOT_NAMED 1939-07-09 12:00:00 NR 32.9970 124.243 main 188 185 __________P___ -1 32.9970 124.243 2 13 346
1939184N11137 1939 29 WP MM NOT_NAMED 1939-07-09 15:00:00 NR 33.6403 124.144 main 197 197 __________P___ -1 33.6403 124.144 2 13 357
1939184N11137 1939 29 WP MM NOT_NAMED 1939-07-09 18:00:00 NR 34.2885 124.147 main 204 183 __________P___ -1 34.2885 124.147 2 13 2
1939184N11137 1939 29 WP MM NOT_NAMED 1939-07-09 21:00:00 NR 34.9000 124.200 main 183 181 __________O___ -1 34.9000 124.200 2 12 358
1939184N11137 1939 29 WP MM NOT_NAMED 1939-07-10 00:00:00 NR 35.4448 124.103 main 193 181 __________P___ -1 35.4448 124.103 2 11 353
1939184N11137 1939 29 WP MM NOT_NAMED 1939-07-10 03:00:00 NR 35.9442 124.057 main 181 152 __________P___ -1 35.9442 124.057 2 10 1
1939184N11137 1939 29 WP MM NOT_NAMED 1939-07-10 06:00:00 NR 36.3967 124.132 main 152 127 __________P___ -1 36.3967 124.132 2 9 18
1939184N11137 1939 29 WP MM NOT_NAMED 1939-07-10 09:00:00 NR 36.8000 124.400 main 127 75 __________O___ -1 36.8000 124.400 2 10 40
1939184N11137 1939 29 WP MM NOT_NAMED 1939-07-10 12:00:00 NR 37.1531 124.911 main 65 34 __________P___ -1 37.1531 124.911 2 12 56
1939184N11137 1939 29 WP MM NOT_NAMED 1939-07-10 15:00:00 NR 37.4638 125.625 main 33 8 __________P___ -1 37.4638 125.625 2 14 65
1939184N11137 1939 29 WP MM NOT_NAMED 1939-07-10 18:00:00 NR 37.7422 126.476 main 0 0 __________P___ -1 37.7422 126.476 2 15 69
1939184N11137 1939 29 WP MM NOT_NAMED 1939-07-10 21:00:00 NR 38.0000 127.400 main 0 __________O___ -1 38.0000 127.400 2 15 70

Digital Typhoon Data and Search

About IBTrACS Database

This database is a web-friendly format of International Best Track Archive for Climate Stewardship (IBTrACS), a global best track data archive curated by NOAA dating back to 1842.

Updated: 2021-11-26